Time,TemperatureF,DewpointF,PressureIn,WindDirection,WindDirectionDegrees,WindSpeedMPH,WindSpeedGustMPH,Humidity,HourlyPrecipIn,Conditions,Clouds,dailyrainin,SoftwareType,DateUTC
2015-03-05 00:02:00,28.5,19.3,30.30,ENE,57,3.0,4.0,68,0.00,,,0.00,Wunderground v.1.15,2015-03-05 08:02:00,
2015-03-05 00:11:00,28.4,19.5,30.29,ENE,57,4.0,5.0,69,0.00,,,0.00,Wunderground v.1.15,2015-03-05 08:11:00,
2015-03-05 00:22:00,28.6,19.7,30.30,NE,49,5.0,5.0,69,0.00,,,0.00,Wunderground v.1.15,2015-03-05 08:22:00,
2015-03-05 00:32:00,29.0,19.8,30.30,ENE,75,5.0,5.0,68,0.00,,,0.00,Wunderground v.1.15,2015-03-05 08:32:00,
2015-03-05 00:42:00,29.3,20.0,30.30,ENE,57,5.0,5.0,68,0.00,,,0.00,Wunderground v.1.15,2015-03-05 08:42:00,
2015-03-05 00:52:00,29.2,19.9,30.30,ENE,77,4.0,4.0,68,0.00,,,0.00,Wunderground v.1.15,2015-03-05 08:52:00,
2015-03-05 01:02:00,29.0,19.8,30.31,East,80,3.0,3.0,68,0.00,,,0.00,Wunderground v.1.15,2015-03-05 09:02:00,
2015-03-05 01:12:00,28.6,20.1,30.31,ENE,74,2.0,2.0,70,0.00,,,0.00,Wunderground v.1.15,2015-03-05 09:12:00,
2015-03-05 01:21:00,28.4,20.2,30.31,East,93,1.0,2.0,71,0.00,,,0.00,Wunderground v.1.15,2015-03-05 09:21:00,
2015-03-05 01:32:00,28.7,20.5,30.31,East,88,2.0,2.0,71,0.00,,,0.00,Wunderground v.1.15,2015-03-05 09:32:00,
2015-03-05 01:42:00,29.0,20.4,30.32,East,89,1.0,1.0,70,0.00,,,0.00,Wunderground v.1.15,2015-03-05 09:42:00,
2015-03-05 01:52:00,29.0,20.4,30.32,NE,50,1.0,1.0,70,0.00,,,0.00,Wunderground v.1.15,2015-03-05 09:52:00,
2015-03-05 02:02:00,28.6,20.4,30.32,NE,50,0.0,1.0,71,0.00,,,0.00,Wunderground v.1.15,2015-03-05 10:02:00,
2015-03-05 02:12:00,28.4,20.2,30.31,NE,50,1.0,2.0,71,0.00,,,0.00,Wunderground v.1.15,2015-03-05 10:12:00,
2015-03-05 02:21:00,28.4,20.5,30.32,ENE,57,2.0,2.0,72,0.00,,,0.00,Wunderground v.1.15,2015-03-05 10:21:00,
2015-03-05 02:31:00,28.6,20.7,30.32,NE,44,2.0,2.0,72,0.00,,,0.00,Wunderground v.1.15,2015-03-05 10:31:00,
2015-03-05 02:41:00,28.3,20.4,30.31,NE,56,1.0,1.0,72,0.00,,,0.00,Wunderground v.1.15,2015-03-05 10:41:00,
2015-03-05 02:52:00,28.1,20.6,30.31,ENE,57,1.0,1.0,73,0.00,,,0.00,Wunderground v.1.15,2015-03-05 10:52:00,
2015-03-05 03:02:00,28.0,20.5,30.31,ENE,57,2.0,2.0,73,0.00,,,0.00,Wunderground v.1.15,2015-03-05 11:02:00,
2015-03-05 03:12:00,27.7,20.2,30.31,NE,43,1.0,1.0,73,0.00,,,0.00,Wunderground v.1.15,2015-03-05 11:12:00,
2015-03-05 03:22:00,27.2,20.0,30.31,NE,36,2.0,2.0,74,0.00,,,0.00,Wunderground v.1.15,2015-03-05 11:22:00,
2015-03-05 03:32:00,26.7,19.8,30.31,ENE,65,3.0,4.0,75,0.00,,,0.00,Wunderground v.1.15,2015-03-05 11:32:00,
2015-03-05 03:42:00,26.9,20.3,30.31,ENE,71,4.0,4.0,76,0.00,,,0.00,Wunderground v.1.15,2015-03-05 11:42:00,
2015-03-05 03:52:00,26.9,20.3,30.32,NE,44,3.0,4.0,76,0.00,,,0.00,Wunderground v.1.15,2015-03-05 11:52:00,
2015-03-05 04:01:00,26.7,20.1,30.32,ENE,69,4.0,4.0,76,0.00,,,0.00,Wunderground v.1.15,2015-03-05 12:01:00,
2015-03-05 04:12:00,26.7,20.1,30.32,NE,53,4.0,4.0,76,0.00,,,0.00,Wunderground v.1.15,2015-03-05 12:12:00,
2015-03-05 04:22:00,26.7,20.1,30.32,ENE,61,3.0,4.0,76,0.00,,,0.00,Wunderground v.1.15,2015-03-05 12:22:00,
2015-03-05 04:32:00,26.9,20.3,30.32,ENE,76,3.0,3.0,76,0.00,,,0.00,Wunderground v.1.15,2015-03-05 12:32:00,
2015-03-05 04:41:00,26.7,20.1,30.33,NE,42,2.0,2.0,76,0.00,,,0.00,Wunderground v.1.15,2015-03-05 12:41:00,
2015-03-05 04:52:00,26.2,20.0,30.33,NE,48,3.0,3.0,77,0.00,,,0.00,Wunderground v.1.15,2015-03-05 12:52:00,
2015-03-05 05:02:00,25.7,19.8,30.33,ENE,65,3.0,3.0,78,0.00,,,0.00,Wunderground v.1.15,2015-03-05 13:02:00,
2015-03-05 05:12:00,25.8,20.2,30.33,NE,51,2.0,2.0,79,0.00,,,0.00,Wunderground v.1.15,2015-03-05 13:12:00,
2015-03-05 05:22:00,25.8,20.2,30.33,NE,53,2.0,3.0,79,0.00,,,0.00,Wunderground v.1.15,2015-03-05 13:22:00,
2015-03-05 05:32:00,26.0,20.4,30.33,NE,34,3.0,4.0,79,0.00,,,0.00,Wunderground v.1.15,2015-03-05 13:32:00,
2015-03-05 05:42:00,25.8,20.2,30.33,NE,53,2.0,3.0,79,0.00,,,0.00,Wunderground v.1.15,2015-03-05 13:42:00,
2015-03-05 05:52:00,25.7,20.4,30.34,ENE,59,3.0,3.0,80,0.00,,,0.00,Wunderground v.1.15,2015-03-05 13:52:00,
2015-03-05 06:02:00,25.4,20.1,30.34,ENE,61,2.0,2.0,80,0.00,,,0.00,Wunderground v.1.15,2015-03-05 14:02:00,
2015-03-05 06:12:00,25.2,20.2,30.34,ENE,67,1.0,2.0,81,0.00,,,0.00,Wunderground v.1.15,2015-03-05 14:12:00,
2015-03-05 06:22:00,25.3,20.3,30.34,ENE,70,2.0,3.0,81,0.00,,,0.00,Wunderground v.1.15,2015-03-05 14:22:00,
2015-03-05 06:32:00,25.1,20.1,30.34,ENE,59,2.0,2.0,81,0.00,,,0.00,Wunderground v.1.15,2015-03-05 14:32:00,
2015-03-05 06:42:00,24.9,19.9,30.34,NE,47,1.0,1.0,81,0.00,,,0.00,Wunderground v.1.15,2015-03-05 14:42:00,
2015-03-05 06:52:00,25.1,20.1,30.35,ENE,61,1.0,2.0,81,0.00,,,0.00,Wunderground v.1.15,2015-03-05 14:52:00,
2015-03-05 07:02:00,25.2,20.5,30.35,NE,53,1.0,1.0,82,0.00,,,0.00,Wunderground v.1.15,2015-03-05 15:02:00,
2015-03-05 07:12:00,25.7,21.0,30.35,ENE,63,1.0,2.0,82,0.00,,,0.00,Wunderground v.1.15,2015-03-05 15:12:00,
2015-03-05 07:22:00,26.7,21.9,30.35,NNE,21,2.0,2.0,82,0.00,,,0.00,Wunderground v.1.15,2015-03-05 15:22:00,
2015-03-05 07:32:00,27.7,22.6,30.36,NE,53,2.0,4.0,81,0.00,,,0.00,Wunderground v.1.15,2015-03-05 15:32:00,
2015-03-05 07:41:00,29.0,23.6,30.36,ENE,61,3.0,3.0,80,0.00,,,0.00,Wunderground v.1.15,2015-03-05 15:41:00,
2015-03-05 07:52:00,30.4,24.4,30.36,East,80,2.0,2.0,78,0.00,,,0.00,Wunderground v.1.15,2015-03-05 15:52:00,
2015-03-05 08:02:00,32.0,24.6,30.36,East,89,3.0,5.0,74,0.00,,,0.00,Wunderground v.1.15,2015-03-05 16:02:00,
2015-03-05 08:12:00,32.9,24.9,30.37,East,84,3.0,3.0,72,0.00,,,0.00,Wunderground v.1.15,2015-03-05 16:12:00,
2015-03-05 08:21:00,33.6,25.2,30.38,NE,52,1.0,2.0,71,0.00,,,0.00,Wunderground v.1.15,2015-03-05 16:21:00,
2015-03-05 08:32:00,34.4,24.9,30.38,ENE,69,3.0,3.0,68,0.00,,,0.00,Wunderground v.1.15,2015-03-05 16:32:00,
2015-03-05 08:42:00,36.1,25.1,30.38,ENE,71,4.0,4.0,64,0.00,,,0.00,Wunderground v.1.15,2015-03-05 16:42:00,
2015-03-05 08:52:00,38.0,24.9,30.38,ENE,76,4.0,4.0,59,0.00,,,0.00,Wunderground v.1.15,2015-03-05 16:52:00,
2015-03-05 09:02:00,39.4,25.0,30.38,ENE,71,4.0,4.0,56,0.00,,,0.00,Wunderground v.1.15,2015-03-05 17:02:00,
2015-03-05 09:12:00,39.9,25.0,30.38,ENE,76,4.0,4.0,55,0.00,,,0.00,Wunderground v.1.15,2015-03-05 17:12:00,
2015-03-05 09:22:00,41.0,25.2,30.39,ENE,63,4.0,4.0,53,0.00,,,0.00,Wunderground v.1.15,2015-03-05 17:22:00,
2015-03-05 09:32:00,43.6,26.2,30.38,ENE,78,3.0,3.0,50,0.00,,,0.00,Wunderground v.1.15,2015-03-05 17:32:00,
2015-03-05 09:42:00,44.3,26.3,30.38,ENE,61,3.0,4.0,49,0.00,,,0.00,Wunderground v.1.15,2015-03-05 17:42:00,
2015-03-05 09:52:00,45.6,26.5,30.38,ENE,77,4.0,4.0,47,0.00,,,0.00,Wunderground v.1.15,2015-03-05 17:52:00,
2015-03-05 10:02:00,45.6,24.9,30.38,ENE,71,4.0,4.0,44,0.00,,,0.00,Wunderground v.1.15,2015-03-05 18:02:00,
2015-03-05 10:12:00,45.4,25.3,30.38,ENE,72,3.0,4.0,45,0.00,,,0.00,Wunderground v.1.15,2015-03-05 18:12:00,
2015-03-05 10:21:00,47.3,26.5,30.38,NNE,32,2.0,4.0,44,0.00,,,0.00,Wunderground v.1.15,2015-03-05 18:21:00,
2015-03-05 10:32:00,46.9,26.1,30.38,NNW,340,3.0,4.0,44,0.00,,,0.00,Wunderground v.1.15,2015-03-05 18:32:00,
2015-03-05 10:42:00,47.4,27.1,30.38,NNW,327,3.0,4.0,45,0.00,,,0.00,Wunderground v.1.15,2015-03-05 18:42:00,
2015-03-05 10:52:00,48.2,26.7,30.38,North,11,3.0,3.0,43,0.00,,,0.00,Wunderground v.1.15,2015-03-05 18:52:00,
2015-03-05 11:02:00,49.7,29.2,30.38,ENE,78,3.0,3.0,45,0.00,,,0.00,Wunderground v.1.15,2015-03-05 19:02:00,
2015-03-05 11:11:00,50.7,27.8,30.37,NE,51,4.0,5.0,41,0.00,,,0.00,Wunderground v.1.15,2015-03-05 19:11:00,
2015-03-05 11:21:00,53.0,26.7,30.38,East,81,4.0,5.0,36,0.00,,,0.00,Wunderground v.1.15,2015-03-05 19:21:00,
2015-03-05 11:32:00,51.7,28.1,30.38,NE,44,3.0,3.0,40,0.00,,,0.00,Wunderground v.1.15,2015-03-05 19:32:00,
2015-03-05 11:42:00,54.0,27.6,30.37,NNE,24,4.0,4.0,36,0.00,,,0.00,Wunderground v.1.15,2015-03-05 19:42:00,
2015-03-05 11:52:00,53.9,28.8,30.37,ENE,67,4.0,4.0,38,0.00,,,0.00,Wunderground v.1.15,2015-03-05 19:52:00,
2015-03-05 12:02:00,51.2,25.8,30.37,South,174,3.0,3.0,37,0.00,,,0.00,Wunderground v.1.15,2015-03-05 20:02:00,
2015-03-05 12:12:00,50.9,24.9,30.37,SE,130,2.0,2.0,36,0.00,,,0.00,Wunderground v.1.15,2015-03-05 20:12:00,
2015-03-05 12:22:00,51.6,26.1,30.36,ENE,76,2.0,2.0,37,0.00,,,0.00,Wunderground v.1.15,2015-03-05 20:22:00,
2015-03-05 12:32:00,53.0,26.0,30.36,SE,133,1.0,1.0,35,0.00,,,0.00,Wunderground v.1.15,2015-03-05 20:32:00,
2015-03-05 12:42:00,52.4,25.5,30.36,ESE,112,2.0,2.0,35,0.00,,,0.00,Wunderground v.1.15,2015-03-05 20:42:00,
2015-03-05 12:52:00,53.1,28.1,30.35,East,96,2.0,3.0,38,0.00,,,0.00,Wunderground v.1.15,2015-03-05 20:52:00,
2015-03-05 13:02:00,56.6,27.0,30.35,East,99,3.0,3.0,32,0.00,,,0.00,Wunderground v.1.15,2015-03-05 21:02:00,
2015-03-05 13:12:00,55.2,27.3,30.35,NE,43,2.0,2.0,34,0.00,,,0.00,Wunderground v.1.15,2015-03-05 21:12:00,
2015-03-05 13:22:00,55.3,25.9,30.34,NNW,338,1.0,3.0,32,0.00,,,0.00,Wunderground v.1.15,2015-03-05 21:22:00,
2015-03-05 13:32:00,55.3,27.4,30.34,WSW,256,2.0,2.0,34,0.00,,,0.00,Wunderground v.1.15,2015-03-05 21:32:00,
2015-03-05 13:42:00,56.9,27.3,30.34,ENE,74,2.0,2.0,32,0.00,,,0.00,Wunderground v.1.15,2015-03-05 21:42:00,
2015-03-05 13:52:00,56.2,27.4,30.34,WNW,300,2.0,4.0,33,0.00,,,0.00,Wunderground v.1.15,2015-03-05 21:52:00,
2015-03-05 14:01:00,57.1,28.2,30.33,North,349,2.0,2.0,33,0.00,,,0.00,Wunderground v.1.15,2015-03-05 22:01:00,
2015-03-05 14:11:00,56.2,25.9,30.33,SSE,163,2.0,3.0,31,0.00,,,0.00,Wunderground v.1.15,2015-03-05 22:11:00,
2015-03-05 14:22:00,55.6,26.2,30.33,South,190,3.0,3.0,32,0.00,,,0.00,Wunderground v.1.15,2015-03-05 22:22:00,
2015-03-05 14:32:00,56.0,27.3,30.33,West,271,2.0,2.0,33,0.00,,,0.00,Wunderground v.1.15,2015-03-05 22:32:00,
2015-03-05 14:42:00,56.7,25.6,30.33,SSW,196,1.0,5.0,30,0.00,,,0.00,Wunderground v.1.15,2015-03-05 22:42:00,
2015-03-05 14:52:00,56.5,26.2,30.33,South,186,3.0,4.0,31,0.00,,,0.00,Wunderground v.1.15,2015-03-05 22:52:00,
2015-03-05 15:01:00,56.1,25.1,30.33,SW,219,4.0,4.0,30,0.00,,,0.00,Wunderground v.1.15,2015-03-05 23:01:00,
2015-03-05 15:12:00,55.7,25.5,30.33,SW,223,3.0,3.0,31,0.00,,,0.00,Wunderground v.1.15,2015-03-05 23:12:00,
2015-03-05 15:22:00,55.6,26.2,30.33,South,179,2.0,4.0,32,0.00,,,0.00,Wunderground v.1.15,2015-03-05 23:22:00,
2015-03-05 15:32:00,56.0,26.5,30.33,South,185,2.0,2.0,32,0.00,,,0.00,Wunderground v.1.15,2015-03-05 23:32:00,
2015-03-05 15:42:00,55.8,26.3,30.33,SSW,210,2.0,3.0,32,0.00,,,0.00,Wunderground v.1.15,2015-03-05 23:42:00,
2015-03-05 15:52:00,55.1,26.5,30.32,SSW,192,2.0,2.0,33,0.00,,,0.00,Wunderground v.1.15,2015-03-05 23:52:00,
2015-03-05 16:01:00,55.1,26.5,30.32,South,191,1.0,1.0,33,0.00,,,0.00,Wunderground v.1.15,2015-03-06 00:01:00,
2015-03-05 16:12:00,55.0,27.1,30.32,SSW,204,2.0,2.0,34,0.00,,,0.00,Wunderground v.1.15,2015-03-06 00:12:00,
2015-03-05 16:22:00,54.4,27.3,30.32,South,188,2.0,2.0,35,0.00,,,0.00,Wunderground v.1.15,2015-03-06 00:22:00,
2015-03-05 16:32:00,54.4,28.0,30.32,South,188,2.0,2.0,36,0.00,,,0.00,Wunderground v.1.15,2015-03-06 00:32:00,
2015-03-05 16:42:00,54.5,28.1,30.31,SSW,200,2.0,2.0,36,0.00,,,0.00,Wunderground v.1.15,2015-03-06 00:42:00,
2015-03-05 16:51:00,54.5,28.1,30.31,SW,220,1.0,1.0,36,0.00,,,0.00,Wunderground v.1.15,2015-03-06 00:51:00,
2015-03-05 17:02:00,54.1,28.4,30.31,SW,221,1.0,1.0,37,0.00,,,0.00,Wunderground v.1.15,2015-03-06 01:02:00,
2015-03-05 17:12:00,53.4,27.8,30.31,SW,225,1.0,1.0,37,0.00,,,0.00,Wunderground v.1.15,2015-03-06 01:12:00,